Time;durP1;ratioP1;P1;durP2;ratioP2;P2;SDS_P1;SDS_P2;PMS_P1;PMS_P2;Temp;Humidity;BMP_temperature;BMP_pressure;BME280_temperature;BME280_humidity;BME280_pressure;Samples;Min_cycle;Max_cycle;Signal;HPM_P1;HPM_P2
2021/09/28 00:02:01;;;;;;;0.70;0.50;;;;;;;;;;5068187;28;20487;-57
2021/09/28 00:04:27;;;;;;;0.22;0.22;;;;;;;;;;5068611;28;20035;-57
2021/09/28 00:06:53;;;;;;;0.30;0.30;;;;;;;;;;5069451;28;20025;-57
2021/09/28 00:09:19;;;;;;;1.15;0.40;;;;;;;;;;5067452;28;20402;-57
2021/09/28 00:11:50;;;;;;;0.52;0.30;;;;;;;;;;5068634;28;20021;-57
2021/09/28 00:14:16;;;;;;;2.92;0.30;;;;;;;;;;5068512;28;20142;-57
2021/09/28 00:16:42;;;;;;;0.45;0.22;;;;;;;;;;5068594;28;20094;-57
2021/09/28 00:19:08;;;;;;;0.90;0.38;;;;;;;;;;5068308;28;20027;-58
2021/09/28 00:21:34;;;;;;;0.32;0.32;;;;;;;;;;5068121;28;20492;-58
2021/09/28 00:24:00;;;;;;;0.98;0.30;;;;;;;;;;5072609;28;20031;-57
2021/09/28 00:26:26;;;;;;;0.30;0.30;;;;;;;;;;5088346;28;20032;-57
2021/09/28 00:28:52;;;;;;;0.52;0.40;;;;;;;;;;5089118;28;20417;-57
2021/09/28 00:31:18;;;;;;;0.20;0.20;;;;;;;;;;5088149;28;20028;-57
2021/09/28 00:33:44;;;;;;;0.50;0.30;;;;;;;;;;5088246;28;20024;-57
2021/09/28 00:36:11;;;;;;;0.93;0.30;;;;;;;;;;5088200;28;20024;-57
2021/09/28 00:38:37;;;;;;;0.93;0.40;;;;;;;;;;5088044;28;20032;-57
2021/09/28 00:41:03;;;;;;;0.40;0.30;;;;;;;;;;5088294;28;20073;-57
2021/09/28 00:43:49;;;;;;;0.68;0.25;;;;;;;;;;5088029;28;20119;-57
2021/09/28 00:46:16;;;;;;;0.30;0.30;;;;;;;;;;5077604;28;20033;-57
2021/09/28 00:48:42;;;;;;;0.63;0.40;;;;;;;;;;5067628;28;20090;-58
2021/09/28 00:51:08;;;;;;;0.50;0.30;;;;;;;;;;5067867;28;20055;-57
2021/09/28 00:53:38;;;;;;;0.30;0.30;;;;;;;;;;5067731;28;20033;-58
2021/09/28 00:56:04;;;;;;;0.60;0.32;;;;;;;;;;5068266;28;20442;-58
2021/09/28 00:58:30;;;;;;;0.25;0.25;;;;;;;;;;5067334;28;20021;-58
2021/09/28 01:00:57;;;;;;;0.55;0.30;;;;;;;;;;5067831;28;20399;-57
2021/09/28 01:03:24;;;;;;;0.30;0.30;;;;;;;;;;5067552;28;20107;-58
2021/09/28 01:05:50;;;;;;;0.32;0.30;;;;;;;;;;5067900;28;20071;-57
2021/09/28 01:08:16;;;;;;;0.20;0.20;;;;;;;;;;5067727;28;20880;-58
2021/09/28 01:10:42;;;;;;;0.52;0.30;;;;;;;;;;5066671;28;20032;-58
2021/09/28 01:13:08;;;;;;;0.57;0.30;;;;;;;;;;5067519;28;20526;-57
2021/09/28 01:15:34;;;;;;;0.20;0.20;;;;;;;;;;5067239;28;20391;-57
2021/09/28 01:18:01;;;;;;;0.30;0.30;;;;;;;;;;5067415;28;20550;-58
2021/09/28 01:20:27;;;;;;;1.13;0.40;;;;;;;;;;5067256;28;20024;-57
2021/09/28 01:22:53;;;;;;;0.32;0.32;;;;;;;;;;5067810;28;20021;-57
2021/09/28 01:25:20;;;;;;;1.27;0.50;;;;;;;;;;5065960;28;20036;-57
2021/09/28 01:27:46;;;;;;;1.23;0.40;;;;;;;;;;5067343;28;20066;-58
2021/09/28 01:30:12;;;;;;;0.30;0.30;;;;;;;;;;5067525;28;20517;-57
2021/09/28 01:32:39;;;;;;;0.50;0.40;;;;;;;;;;5066642;28;20091;-58
2021/09/28 01:35:06;;;;;;;0.75;0.50;;;;;;;;;;5066346;28;20073;-57
2021/09/28 01:37:32;;;;;;;0.68;0.40;;;;;;;;;;5066939;28;20032;-57
2021/09/28 01:39:58;;;;;;;0.63;0.50;;;;;;;;;;5066876;28;20032;-57
2021/09/28 01:42:24;;;;;;;1.05;0.30;;;;;;;;;;5067210;28;20039;-58
2021/09/28 01:44:50;;;;;;;0.30;0.30;;;;;;;;;;5066614;28;20025;-57
2021/09/28 01:47:16;;;;;;;2.95;0.40;;;;;;;;;;5066912;28;20800;-57
2021/09/28 01:49:42;;;;;;;1.23;0.40;;;;;;;;;;5066814;28;20028;-57
2021/09/28 01:52:08;;;;;;;0.60;0.30;;;;;;;;;;5066744;28;20020;-58
2021/09/28 01:54:34;;;;;;;0.65;0.30;;;;;;;;;;5066452;28;20039;-57
2021/09/28 01:57:00;;;;;;;1.10;0.35;;;;;;;;;;5067029;28;20024;-58
2021/09/28 01:59:26;;;;;;;0.40;0.40;;;;;;;;;;5065681;28;20056;-58
2021/09/28 02:01:52;;;;;;;0.50;0.32;;;;;;;;;;5084734;28;20153;-58
2021/09/28 02:04:18;;;;;;;0.30;0.30;;;;;;;;;;5077268;28;20036;-58
2021/09/28 02:06:44;;;;;;;0.40;0.40;;;;;;;;;;5066586;28;21131;-57
2021/09/28 02:09:11;;;;;;;0.60;0.50;;;;;;;;;;5066518;28;20397;-57
2021/09/28 02:11:38;;;;;;;0.70;0.47;;;;;;;;;;5066333;28;20047;-58
2021/09/28 02:14:05;;;;;;;0.65;0.40;;;;;;;;;;5066711;28;20029;-58
2021/09/28 02:16:31;;;;;;;0.45;0.40;;;;;;;;;;5066157;28;20078;-58
2021/09/28 02:18:57;;;;;;;0.20;0.20;;;;;;;;;;5066474;28;20036;-58
2021/09/28 02:21:23;;;;;;;0.90;0.50;;;;;;;;;;5066753;28;20029;-57
2021/09/28 02:23:49;;;;;;;0.43;0.43;;;;;;;;;;5048506;28;20032;-57
2021/09/28 02:26:16;;;;;;;0.47;0.40;;;;;;;;;;5066409;28;20024;-57
2021/09/28 02:28:42;;;;;;;0.30;0.30;;;;;;;;;;5066031;28;20024;-58
2021/09/28 02:31:08;;;;;;;1.00;0.35;;;;;;;;;;5065967;28;20120;-58
2021/09/28 02:33:34;;;;;;;1.10;0.50;;;;;;;;;;5066309;28;20661;-57
2021/09/28 02:36:00;;;;;;;0.65;0.40;;;;;;;;;;5066386;28;20120;-57
2021/09/28 02:38:26;;;;;;;1.52;0.60;;;;;;;;;;5065843;28;20139;-58
2021/09/28 02:40:52;;;;;;;0.47;0.40;;;;;;;;;;5065887;28;20123;-57
2021/09/28 02:43:18;;;;;;;0.57;0.40;;;;;;;;;;5065894;28;20547;-57
2021/09/28 02:45:47;;;;;;;0.30;0.30;;;;;;;;;;5066316;28;20565;-57
2021/09/28 02:48:14;;;;;;;0.32;0.30;;;;;;;;;;5066190;28;20048;-58
2021/09/28 02:50:40;;;;;;;0.45;0.40;;;;;;;;;;5065638;28;20515;-57
2021/09/28 02:53:07;;;;;;;0.63;0.40;;;;;;;;;;5066167;28;20377;-57
2021/09/28 02:55:33;;;;;;;1.05;0.52;;;;;;;;;;5066003;28;20041;-58
2021/09/28 02:57:59;;;;;;;0.70;0.45;;;;;;;;;;5069593;28;20044;-58
2021/09/28 03:00:25;;;;;;;0.63;0.40;;;;;;;;;;5081094;28;20039;-57
2021/09/28 03:02:52;;;;;;;0.77;0.30;;;;;;;;;;5090207;28;20032;-57
2021/09/28 03:05:18;;;;;;;0.50;0.40;;;;;;;;;;5090108;28;20050;-58
2021/09/28 03:07:44;;;;;;;0.90;0.50;;;;;;;;;;5090095;28;20020;-57
2021/09/28 03:10:10;;;;;;;0.75;0.47;;;;;;;;;;5090256;28;20028;-57
2021/09/28 03:12:36;;;;;;;0.80;0.40;;;;;;;;;;5089008;28;20054;-57
2021/09/28 03:15:03;;;;;;;0.75;0.50;;;;;;;;;;5090281;28;20101;-57
2021/09/28 03:17:29;;;;;;;0.60;0.40;;;;;;;;;;5070990;28;20029;-57
2021/09/28 03:19:55;;;;;;;0.65;0.50;;;;;;;;;;5070621;28;20028;-57
2021/09/28 03:22:21;;;;;;;0.55;0.43;;;;;;;;;;5069231;28;20028;-57
2021/09/28 03:24:47;;;;;;;0.52;0.40;;;;;;;;;;5069573;28;20695;-57
2021/09/28 03:27:13;;;;;;;0.80;0.30;;;;;;;;;;5069541;28;20021;-57
2021/09/28 03:29:39;;;;;;;0.30;0.30;;;;;;;;;;5069401;28;20043;-57
2021/09/28 03:32:06;;;;;;;0.47;0.30;;;;;;;;;;5087242;28;20526;-57
2021/09/28 03:34:32;;;;;;;1.00;0.40;;;;;;;;;;5089611;28;20032;-58
2021/09/28 03:36:58;;;;;;;0.70;0.40;;;;;;;;;;5070109;28;20403;-57
2021/09/28 03:39:24;;;;;;;0.55;0.35;;;;;;;;;;5068875;28;20095;-57
2021/09/28 03:41:50;;;;;;;1.15;0.55;;;;;;;;;;5069312;28;20028;-57
2021/09/28 03:44:16;;;;;;;0.98;0.47;;;;;;;;;;5068571;28;20051;-57
2021/09/28 03:46:42;;;;;;;0.63;0.50;;;;;;;;;;5069043;28;20024;-57
2021/09/28 03:49:09;;;;;;;0.77;0.40;;;;;;;;;;5069184;28;20052;-57
2021/09/28 03:51:35;;;;;;;0.57;0.40;;;;;;;;;;5068809;28;20564;-57
2021/09/28 03:54:01;;;;;;;1.02;0.50;;;;;;;;;;5068329;28;20066;-57
2021/09/28 03:56:27;;;;;;;0.52;0.40;;;;;;;;;;5068775;28;20472;-57
2021/09/28 03:58:53;;;;;;;0.40;0.40;;;;;;;;;;5069804;28;20487;-57
2021/09/28 04:01:19;;;;;;;1.58;0.52;;;;;;;;;;5088987;28;20486;-57
2021/09/28 04:03:45;;;;;;;0.52;0.30;;;;;;;;;;5088475;28;20077;-57
2021/09/28 04:06:11;;;;;;;0.63;0.40;;;;;;;;;;5089277;28;20028;-57
2021/09/28 04:08:38;;;;;;;0.55;0.40;;;;;;;;;;5087610;28;20103;-57
2021/09/28 04:11:04;;;;;;;0.63;0.32;;;;;;;;;;5089039;28;20020;-57
2021/09/28 04:13:30;;;;;;;0.40;0.40;;;;;;;;;;5088503;28;20036;-57
2021/09/28 04:15:56;;;;;;;0.20;0.20;;;;;;;;;;5089039;28;20035;-57
2021/09/28 04:18:22;;;;;;;0.35;0.35;;;;;;;;;;5089022;28;20526;-57
2021/09/28 04:20:49;;;;;;;1.02;0.57;;;;;;;;;;5085623;28;20126;-57
2021/09/28 04:23:15;;;;;;;0.65;0.40;;;;;;;;;;5088392;28;20115;-57
2021/09/28 04:25:42;;;;;;;0.60;0.40;;;;;;;;;;5081215;28;20024;-57
2021/09/28 04:28:09;;;;;;;0.40;0.38;;;;;;;;;;5068422;28;20107;-57
2021/09/28 04:30:35;;;;;;;0.40;0.40;;;;;;;;;;5067897;28;20025;-58
2021/09/28 04:33:01;;;;;;;0.30;0.30;;;;;;;;;;5068603;28;20032;-57
2021/09/28 04:35:28;;;;;;;0.35;0.30;;;;;;;;;;5067992;28;20028;-57
2021/09/28 04:37:54;;;;;;;0.40;0.35;;;;;;;;;;5068733;28;20526;-57
2021/09/28 04:40:20;;;;;;;0.57;0.50;;;;;;;;;;5068328;28;20025;-57
2021/09/28 04:42:46;;;;;;;0.95;0.40;;;;;;;;;;5067610;28;20738;-57
2021/09/28 04:45:13;;;;;;;0.73;0.40;;;;;;;;;;5067978;28;20031;-57
2021/09/28 04:47:39;;;;;;;0.77;0.40;;;;;;;;;;5067867;28;20016;-57
2021/09/28 04:50:07;;;;;;;0.40;0.40;;;;;;;;;;5067962;28;20028;-58
2021/09/28 04:52:33;;;;;;;0.35;0.35;;;;;;;;;;5067431;28;20028;-57
2021/09/28 04:54:59;;;;;;;0.55;0.40;;;;;;;;;;5075146;28;20563;-57
2021/09/28 04:57:25;;;;;;;0.38;0.38;;;;;;;;;;5088360;28;20064;-57
2021/09/28 04:59:51;;;;;;;0.68;0.30;;;;;;;;;;5088534;28;20031;-57
2021/09/28 05:02:17;;;;;;;0.70;0.40;;;;;;;;;;5087480;28;20103;-57
2021/09/28 05:04:43;;;;;;;0.50;0.43;;;;;;;;;;5087688;28;20554;-57
2021/09/28 05:07:09;;;;;;;1.23;0.40;;;;;;;;;;5087912;28;20415;-57
2021/09/28 05:09:37;;;;;;;0.60;0.40;;;;;;;;;;5087632;28;20395;-57
2021/09/28 05:12:04;;;;;;;1.38;0.40;;;;;;;;;;5087660;28;20538;-57
2021/09/28 05:14:30;;;;;;;0.65;0.40;;;;;;;;;;5087282;28;20048;-57
2021/09/28 05:16:56;;;;;;;0.35;0.35;;;;;;;;;;5069688;28;20426;-57
2021/09/28 05:19:22;;;;;;;0.65;0.40;;;;;;;;;;5087164;28;20024;-57
2021/09/28 05:21:48;;;;;;;0.55;0.30;;;;;;;;;;5087465;28;20560;-57
2021/09/28 05:24:14;;;;;;;0.80;0.40;;;;;;;;;;5085421;28;20744;-57
2021/09/28 05:26:40;;;;;;;0.57;0.40;;;;;;;;;;5084722;28;20457;-57
2021/09/28 05:29:06;;;;;;;0.75;0.50;;;;;;;;;;5067403;28;20677;-57
2021/09/28 05:31:32;;;;;;;0.63;0.30;;;;;;;;;;5065969;28;20448;-57
2021/09/28 05:33:58;;;;;;;0.82;0.40;;;;;;;;;;5066080;28;20424;-57
2021/09/28 05:36:24;;;;;;;0.60;0.45;;;;;;;;;;5067780;28;20027;-57
2021/09/28 05:38:51;;;;;;;0.38;0.38;;;;;;;;;;5067317;28;20032;-57
2021/09/28 05:41:17;;;;;;;0.45;0.40;;;;;;;;;;5066974;28;20085;-57
2021/09/28 05:43:44;;;;;;;1.00;0.55;;;;;;;;;;5065345;28;20499;-57
2021/09/28 05:46:10;;;;;;;1.45;0.40;;;;;;;;;;5085444;28;20510;-57
2021/09/28 05:48:36;;;;;;;0.73;0.40;;;;;;;;;;5086723;28;20400;-57
2021/09/28 05:51:16;;;;;;;0.38;0.38;;;;;;;;;;5087097;28;20488;-57
2021/09/28 05:53:44;;;;;;;0.63;0.40;;;;;;;;;;5077354;28;20062;-57
2021/09/28 05:56:10;;;;;;;1.10;0.50;;;;;;;;;;5082260;28;20489;-57
2021/09/28 05:58:36;;;;;;;0.30;0.30;;;;;;;;;;5082859;28;20028;-57
2021/09/28 06:01:02;;;;;;;0.65;0.50;;;;;;;;;;5070180;28;20076;-57
2021/09/28 06:03:28;;;;;;;1.42;0.50;;;;;;;;;;5065382;28;20036;-57
2021/09/28 06:05:54;;;;;;;0.85;0.47;;;;;;;;;;5066316;28;20834;-57
2021/09/28 06:08:20;;;;;;;0.55;0.50;;;;;;;;;;5071115;28;20046;-57
2021/09/28 06:10:47;;;;;;;1.48;0.60;;;;;;;;;;5070397;28;20553;-57
2021/09/28 06:13:13;;;;;;;1.05;0.40;;;;;;;;;;5064629;28;20574;-57
2021/09/28 06:15:39;;;;;;;0.93;0.50;;;;;;;;;;5063131;28;20116;-57
2021/09/28 06:18:05;;;;;;;0.50;0.40;;;;;;;;;;5084169;28;20107;-57
2021/09/28 06:20:32;;;;;;;0.40;0.40;;;;;;;;;;5067448;28;20029;-57
2021/09/28 06:22:58;;;;;;;0.93;0.50;;;;;;;;;;5068023;28;20048;-58
2021/09/28 06:25:24;;;;;;;0.47;0.40;;;;;;;;;;5083256;28;20400;-57
2021/09/28 06:27:50;;;;;;;0.75;0.40;;;;;;;;;;5086591;28;20031;-57
2021/09/28 06:30:16;;;;;;;0.55;0.50;;;;;;;;;;5083454;28;20089;-57
2021/09/28 06:32:42;;;;;;;0.30;0.30;;;;;;;;;;5065029;28;20044;-57
2021/09/28 06:35:09;;;;;;;1.30;0.60;;;;;;;;;;5073352;28;20486;-57
2021/09/28 06:37:35;;;;;;;0.35;0.35;;;;;;;;;;5084792;28;20039;-57
2021/09/28 06:40:01;;;;;;;0.73;0.30;;;;;;;;;;5085102;28;20379;-57
2021/09/28 06:42:27;;;;;;;0.57;0.50;;;;;;;;;;5061496;28;20029;-57
2021/09/28 06:44:54;;;;;;;0.90;0.40;;;;;;;;;;5077507;28;20038;-57
2021/09/28 06:47:20;;;;;;;0.60;0.40;;;;;;;;;;5076039;28;20107;-57
2021/09/28 06:49:46;;;;;;;1.50;0.70;;;;;;;;;;5072460;28;20035;-58
2021/09/28 06:52:12;;;;;;;0.65;0.50;;;;;;;;;;5083476;28;20028;-58
2021/09/28 06:54:39;;;;;;;0.40;0.40;;;;;;;;;;5084230;28;20056;-57
2021/09/28 06:57:05;;;;;;;0.57;0.40;;;;;;;;;;5070090;28;20036;-57
2021/09/28 06:59:31;;;;;;;0.70;0.40;;;;;;;;;;5070835;28;20456;-57
2021/09/28 07:01:57;;;;;;;0.57;0.30;;;;;;;;;;5075585;28;20025;-58
2021/09/28 07:04:24;;;;;;;0.95;0.45;;;;;;;;;;5064737;28;20028;-57
2021/09/28 07:06:50;;;;;;;0.45;0.45;;;;;;;;;;5065420;28;20032;-57
2021/09/28 07:09:16;;;;;;;0.80;0.50;;;;;;;;;;5064844;28;20095;-57
2021/09/28 07:11:42;;;;;;;0.50;0.50;;;;;;;;;;5078981;28;20868;-57
2021/09/28 07:14:08;;;;;;;1.50;0.80;;;;;;;;;;5083770;28;20024;-57
2021/09/28 07:16:34;;;;;;;0.57;0.47;;;;;;;;;;5083815;28;20028;-57
2021/09/28 07:19:00;;;;;;;0.55;0.50;;;;;;;;;;5084612;28;20050;-57
2021/09/28 07:21:26;;;;;;;1.02;0.50;;;;;;;;;;5072188;28;20032;-57
2021/09/28 07:23:52;;;;;;;2.33;0.40;;;;;;;;;;5074565;28;20502;-57
2021/09/28 07:26:19;;;;;;;0.52;0.50;;;;;;;;;;5076000;28;20515;-57
2021/09/28 07:28:45;;;;;;;0.65;0.50;;;;;;;;;;5070731;28;20031;-57
2021/09/28 07:31:12;;;;;;;0.77;0.50;;;;;;;;;;5065883;28;20120;-57
2021/09/28 07:33:39;;;;;;;1.08;0.40;;;;;;;;;;5064152;28;20512;-57
2021/09/28 07:36:06;;;;;;;1.13;0.63;;;;;;;;;;5061902;28;20043;-57
2021/09/28 07:38:33;;;;;;;1.05;0.43;;;;;;;;;;5063404;28;20024;-57
2021/09/28 07:41:00;;;;;;;2.83;0.50;;;;;;;;;;5064217;28;20031;-57
2021/09/28 07:43:26;;;;;;;0.75;0.50;;;;;;;;;;5066138;28;20025;-57
2021/09/28 07:45:53;;;;;;;0.85;0.30;;;;;;;;;;5067785;28;20024;-57
2021/09/28 07:48:19;;;;;;;0.82;0.60;;;;;;;;;;5067583;28;20883;-57
2021/09/28 07:50:46;;;;;;;2.90;0.70;;;;;;;;;;5067023;28;20070;-57
2021/09/28 07:53:12;;;;;;;0.50;0.50;;;;;;;;;;5053202;28;20024;-57
2021/09/28 07:55:38;;;;;;;0.70;0.50;;;;;;;;;;5065852;28;20496;-58
2021/09/28 07:58:04;;;;;;;1.45;0.63;;;;;;;;;;5067066;28;20024;-57
2021/09/28 08:00:30;;;;;;;0.88;0.50;;;;;;;;;;5066739;28;20035;-57
2021/09/28 08:02:56;;;;;;;1.70;0.60;;;;;;;;;;5067207;28;20023;-57
2021/09/28 08:05:22;;;;;;;1.05;0.50;;;;;;;;;;5067067;28;20446;-57
2021/09/28 08:07:49;;;;;;;0.50;0.50;;;;;;;;;;5066703;28;20028;-57
2021/09/28 08:10:15;;;;;;;0.40;0.40;;;;;;;;;;5066619;28;20050;-58
2021/09/28 08:12:42;;;;;;;0.40;0.40;;;;;;;;;;5066667;28;20435;-57
2021/09/28 08:15:08;;;;;;;0.45;0.40;;;;;;;;;;5067124;28;20024;-57
2021/09/28 08:17:35;;;;;;;1.08;0.40;;;;;;;;;;5066298;28;20024;-58
2021/09/28 08:20:03;;;;;;;0.95;0.45;;;;;;;;;;5065376;28;20511;-57
2021/09/28 08:22:29;;;;;;;1.60;0.40;;;;;;;;;;5064370;28;20031;-57
2021/09/28 08:25:06;;;;;;;0.40;0.40;;;;;;;;;;5068383;28;20037;-57
2021/09/28 08:30:17;;;;;;;2.20;0.45;;;;;;;;;;5067271;28;20064;-56
2021/09/28 08:32:43;;;;;;;0.98;0.50;;;;;;;;;;5065634;28;20056;-57
2021/09/28 08:35:09;;;;;;;0.52;0.30;;;;;;;;;;5068006;28;20040;-56
2021/09/28 08:37:35;;;;;;;0.35;0.35;;;;;;;;;;5048807;28;20052;-57
2021/09/28 08:40:01;;;;;;;0.40;0.40;;;;;;;;;;5067398;28;20068;-57
2021/09/28 08:42:27;;;;;;;0.68;0.40;;;;;;;;;;5067017;28;20422;-57
2021/09/28 08:44:53;;;;;;;0.30;0.30;;;;;;;;;;5067656;28;20028;-57
2021/09/28 08:47:34;;;;;;;0.68;0.40;;;;;;;;;;5067461;28;20021;-57
2021/09/28 08:50:00;;;;;;;0.35;0.35;;;;;;;;;;5067470;28;20050;-58
2021/09/28 08:52:26;;;;;;;0.30;0.30;;;;;;;;;;5067126;28;20060;-56
2021/09/28 08:54:52;;;;;;;1.98;0.40;;;;;;;;;;5065240;28;20056;-57
2021/09/28 08:57:19;;;;;;;0.20;0.20;;;;;;;;;;5064532;28;20028;-57
2021/09/28 08:59:49;;;;;;;0.55;0.40;;;;;;;;;;5067754;28;20115;-58
2021/09/28 09:02:16;;;;;;;0.40;0.40;;;;;;;;;;5065547;28;20043;-56
2021/09/28 09:04:47;;;;;;;0.30;0.30;;;;;;;;;;5067047;28;20028;-56
2021/09/28 09:07:23;;;;;;;0.25;0.25;;;;;;;;;;5067034;28;20095;-57
2021/09/28 09:09:49;;;;;;;1.27;0.50;;;;;;;;;;5066972;28;20111;-57
2021/09/28 09:12:36;;;;;;;1.13;0.60;;;;;;;;;;5066319;28;20111;-57
2021/09/28 09:15:16;;;;;;;0.57;0.30;;;;;;;;;;5066891;28;20489;-57
2021/09/28 09:17:44;;;;;;;0.35;0.35;;;;;;;;;;5067021;28;20050;-57
2021/09/28 09:20:29;;;;;;;1.08;0.40;;;;;;;;;;5066979;28;20031;-57
2021/09/28 09:23:13;;;;;;;0.77;0.43;;;;;;;;;;5056991;28;20032;-57
2021/09/28 09:25:40;;;;;;;0.40;0.40;;;;;;;;;;5066984;28;20031;-56
2021/09/28 09:28:28;;;;;;;0.70;0.40;;;;;;;;;;5066068;28;20067;-57
2021/09/28 09:31:05;;;;;;;0.55;0.32;;;;;;;;;;5063837;28;20484;-56
2021/09/28 09:33:31;;;;;;;0.63;0.43;;;;;;;;;;5066126;28;20081;-56
2021/09/28 09:36:01;;;;;;;0.73;0.30;;;;;;;;;;5067244;28;20028;-56
2021/09/28 09:38:28;;;;;;;1.17;0.40;;;;;;;;;;5063442;28;20094;-57
2021/09/28 09:40:54;;;;;;;1.48;0.40;;;;;;;;;;5065659;28;20430;-56
2021/09/28 09:43:29;;;;;;;0.63;0.50;;;;;;;;;;5065428;28;20029;-57
2021/09/28 09:46:21;;;;;;;1.00;0.68;;;;;;;;;;5065509;28;20180;-56
2021/09/28 09:48:48;;;;;;;0.68;0.30;;;;;;;;;;5062483;28;20435;-57
2021/09/28 09:51:17;;;;;;;1.75;0.40;;;;;;;;;;5065365;28;20020;-57
2021/09/28 09:54:00;;;;;;;0.93;0.50;;;;;;;;;;5064904;28;20493;-57
2021/09/28 09:56:46;;;;;;;0.57;0.20;;;;;;;;;;5064804;28;20038;-56
2021/09/28 09:59:13;;;;;;;0.20;0.20;;;;;;;;;;5065283;28;20036;-57
2021/09/28 10:01:39;;;;;;;0.65;0.32;;;;;;;;;;5065622;28;20063;-56
2021/09/28 10:04:09;;;;;;;0.30;0.30;;;;;;;;;;5064577;28;20082;-57
2021/09/28 10:06:35;;;;;;;1.15;0.43;;;;;;;;;;5064588;28;20051;-56
2021/09/28 10:09:02;;;;;;;0.60;0.30;;;;;;;;;;5064872;28;20035;-57
2021/09/28 10:11:33;;;;;;;0.80;0.38;;;;;;;;;;5064272;28;20111;-56
2021/09/28 10:14:00;;;;;;;0.30;0.30;;;;;;;;;;5064647;28;20028;-57
2021/09/28 10:16:31;;;;;;;0.40;0.40;;;;;;;;;;5064674;28;20032;-57
2021/09/28 10:18:57;;;;;;;0.47;0.40;;;;;;;;;;5065007;28;20039;-56
2021/09/28 10:21:35;;;;;;;1.23;0.40;;;;;;;;;;5064585;28;20032;-56
2021/09/28 10:24:25;;;;;;;0.38;0.38;;;;;;;;;;5064579;28;20085;-57
2021/09/28 10:27:00;;;;;;;2.75;0.50;;;;;;;;;;5064475;28;20032;-57
2021/09/28 10:29:46;;;;;;;1.13;0.40;;;;;;;;;;5064900;28;20043;-56
2021/09/28 10:32:24;;;;;;;0.82;0.50;;;;;;;;;;5066438;28;20503;-57
2021/09/28 10:37:51;;;;;;;0.82;0.40;;;;;;;;;;5066120;28;20033;-57
2021/09/28 10:40:21;;;;;;;0.73;0.40;;;;;;;;;;5066066;28;20353;-57
2021/09/28 10:42:53;;;;;;;0.57;0.30;;;;;;;;;;5064969;28;20033;-55
2021/09/28 10:45:20;;;;;;;1.02;0.65;;;;;;;;;;5066121;28;20029;-57
2021/09/28 10:47:53;;;;;;;0.75;0.30;;;;;;;;;;5070242;28;20075;-56
2021/09/28 10:50:26;;;;;;;0.75;0.40;;;;;;;;;;5046687;28;20029;-57
2021/09/28 10:52:53;;;;;;;;;;;;;;;;;;5061692;28;20044;-56
2021/09/28 10:55:21;;;;;;;0.35;0.30;;;;;;;;;;5073295;28;20333;-57
2021/09/28 10:58:01;;;;;;;0.35;0.32;;;;;;;;;;5072451;28;20099;-57
2021/09/28 11:00:28;;;;;;;0.57;0.40;;;;;;;;;;5065601;28;20033;-57
2021/09/28 11:03:01;;;;;;;2.28;0.50;;;;;;;;;;5046310;28;20630;-57
2021/09/28 11:05:30;;;;;;;1.15;0.50;;;;;;;;;;5056786;28;20060;-57
2021/09/28 11:07:59;;;;;;;1.20;0.57;;;;;;;;;;5063678;28;20031;-57
2021/09/28 11:10:26;;;;;;;0.60;0.40;;;;;;;;;;5066505;28;20027;-57
2021/09/28 11:12:52;;;;;;;0.95;0.45;;;;;;;;;;5049696;28;20036;-57
2021/09/28 11:15:19;;;;;;;0.65;0.50;;;;;;;;;;5045426;28;20025;-58
2021/09/28 11:17:45;;;;;;;0.82;0.30;;;;;;;;;;5047183;28;20414;-58
2021/09/28 11:20:25;;;;;;;1.45;0.45;;;;;;;;;;5060238;28;20050;-58
2021/09/28 11:22:54;;;;;;;0.30;0.30;;;;;;;;;;5070274;28;20024;-57
2021/09/28 11:25:20;;;;;;;0.85;0.60;;;;;;;;;;5070126;28;20043;-57
2021/09/28 11:28:00;;;;;;;0.52;0.40;;;;;;;;;;5069378;28;20538;-57
2021/09/28 11:30:27;;;;;;;0.73;0.30;;;;;;;;;;5069104;28;20078;-57
2021/09/28 11:32:59;;;;;;;1.17;0.47;;;;;;;;;;5070108;28;20025;-57
2021/09/28 11:35:25;;;;;;;0.32;0.30;;;;;;;;;;5069359;28;20115;-57
2021/09/28 11:38:02;;;;;;;0.63;0.30;;;;;;;;;;5069870;28;20039;-58
2021/09/28 11:40:35;;;;;;;0.85;0.40;;;;;;;;;;5068749;28;20036;-57
2021/09/28 11:43:20;;;;;;;0.70;0.40;;;;;;;;;;5069157;28;20403;-57
2021/09/28 11:45:47;;;;;;;0.77;0.30;;;;;;;;;;5068718;28;20255;-57
2021/09/28 11:48:13;;;;;;;1.42;0.30;;;;;;;;;;5080509;28;20027;-58
2021/09/28 11:50:40;;;;;;;0.40;0.40;;;;;;;;;;5083158;28;20376;-58
2021/09/28 11:53:09;;;;;;;0.35;0.30;;;;;;;;;;5076506;28;20035;-58
2021/09/28 11:55:35;;;;;;;0.50;0.30;;;;;;;;;;5069958;28;20286;-57
2021/09/28 11:58:03;;;;;;;0.88;0.40;;;;;;;;;;5072932;28;20100;-58
2021/09/28 12:00:29;;;;;;;0.82;0.30;;;;;;;;;;5066761;28;20042;-58
2021/09/28 12:03:09;;;;;;;0.40;0.40;;;;;;;;;;5068392;28;20063;-58
2021/09/28 12:08:22;;;;;;;0.47;0.40;;;;;;;;;;5063790;28;20446;-57
2021/09/28 12:10:48;;;;;;;1.55;0.43;;;;;;;;;;5068796;28;20021;-57
2021/09/28 12:13:25;;;;;;;0.75;0.50;;;;;;;;;;5068821;28;20068;-57
2021/09/28 12:16:08;;;;;;;0.50;0.47;;;;;;;;;;5068715;28;20086;-58
2021/09/28 12:18:34;;;;;;;0.40;0.40;;;;;;;;;;5070282;28;20032;-58
2021/09/28 12:21:07;;;;;;;0.82;0.40;;;;;;;;;;5065055;28;20020;-58
2021/09/28 12:23:33;;;;;;;1.08;0.50;;;;;;;;;;5056829;28;20098;-57
2021/09/28 12:25:59;;;;;;;2.03;0.43;;;;;;;;;;5068675;28;20036;-57
2021/09/28 12:28:26;;;;;;;1.75;0.40;;;;;;;;;;5068002;28;20507;-58
2021/09/28 12:30:55;;;;;;;0.50;0.40;;;;;;;;;;5069253;28;20016;-58
2021/09/28 12:33:21;;;;;;;0.40;0.35;;;;;;;;;;5051224;28;20032;-58
2021/09/28 12:35:58;;;;;;;0.60;0.32;;;;;;;;;;5068467;28;20040;-57
2021/09/28 12:38:24;;;;;;;0.75;0.40;;;;;;;;;;5074391;28;20820;-57
2021/09/28 12:40:51;;;;;;;0.52;0.30;;;;;;;;;;5088630;28;20119;-58
2021/09/28 12:43:26;;;;;;;0.55;0.47;;;;;;;;;;5083428;28;20032;-57
2021/09/28 12:45:58;;;;;;;0.40;0.40;;;;;;;;;;5089333;28;20028;-58
2021/09/28 12:48:38;;;;;;;0.30;0.30;;;;;;;;;;5089039;28;20047;-58
2021/09/28 12:51:06;;;;;;;1.75;0.50;;;;;;;;;;5088419;28;20086;-58
2021/09/28 12:53:32;;;;;;;0.40;0.40;;;;;;;;;;5077529;28;20039;-58
2021/09/28 12:55:59;;;;;;;0.75;0.57;;;;;;;;;;5068192;28;20024;-58
2021/09/28 12:58:25;;;;;;;1.85;0.50;;;;;;;;;;5067207;28;20702;-58
2021/09/28 13:00:52;;;;;;;0.45;0.45;;;;;;;;;;5068584;28;20036;-57
2021/09/28 13:03:22;;;;;;;0.93;0.40;;;;;;;;;;5067211;28;20766;-57
2021/09/28 13:05:52;;;;;;;0.95;0.43;;;;;;;;;;5072273;28;20012;-59
2021/09/28 13:08:21;;;;;;;0.73;0.40;;;;;;;;;;5087560;28;20035;-58
2021/09/28 13:10:48;;;;;;;0.40;0.40;;;;;;;;;;5087477;28;20059;-59
2021/09/28 13:13:14;;;;;;;1.20;0.68;;;;;;;;;;5071480;28;20040;-58
2021/09/28 13:15:40;;;;;;;0.85;0.43;;;;;;;;;;5067103;28;20051;-59
2021/09/28 13:18:06;;;;;;;1.05;0.47;;;;;;;;;;5067154;28;20168;-58
2021/09/28 13:20:32;;;;;;;0.95;0.50;;;;;;;;;;5049122;28;20060;-58
2021/09/28 13:22:58;;;;;;;1.05;0.50;;;;;;;;;;5067427;28;20505;-58
2021/09/28 13:25:26;;;;;;;0.75;0.38;;;;;;;;;;5067662;28;20025;-58
2021/09/28 13:27:52;;;;;;;0.32;0.30;;;;;;;;;;5049879;28;20028;-58
2021/09/28 13:30:18;;;;;;;0.88;0.60;;;;;;;;;;5067377;28;20652;-58
2021/09/28 13:32:44;;;;;;;0.63;0.38;;;;;;;;;;5067157;28;20127;-58
2021/09/28 13:35:10;;;;;;;0.30;0.30;;;;;;;;;;5066999;28;20039;-58
2021/09/28 13:37:38;;;;;;;0.73;0.30;;;;;;;;;;5066731;28;20028;-58
2021/09/28 13:40:05;;;;;;;0.65;0.40;;;;;;;;;;5066376;28;20032;-58
2021/09/28 13:42:31;;;;;;;0.52;0.40;;;;;;;;;;5066382;28;20561;-58
2021/09/28 13:44:57;;;;;;;0.88;0.30;;;;;;;;;;5066568;28;20108;-58
2021/09/28 13:47:23;;;;;;;0.32;0.22;;;;;;;;;;5067145;28;20559;-58
2021/09/28 13:49:49;;;;;;;0.30;0.30;;;;;;;;;;5077250;28;20085;-58
2021/09/28 13:52:16;;;;;;;0.47;0.40;;;;;;;;;;5066307;28;20029;-59
2021/09/28 13:54:43;;;;;;;0.38;0.22;;;;;;;;;;5077952;28;20073;-59
2021/09/28 13:57:09;;;;;;;0.20;0.20;;;;;;;;;;5087165;28;20032;-58
2021/09/28 13:59:36;;;;;;;0.20;0.20;;;;;;;;;;5081991;28;20024;-58
2021/09/28 14:02:02;;;;;;;0.32;0.30;;;;;;;;;;5066297;28;20024;-58
2021/09/28 14:04:29;;;;;;;0.30;0.30;;;;;;;;;;5066140;28;20422;-58
2021/09/28 14:06:55;;;;;;;0.40;0.40;;;;;;;;;;5066973;28;20383;-58
2021/09/28 14:09:21;;;;;;;0.55;0.32;;;;;;;;;;5066630;28;20044;-58
2021/09/28 14:11:48;;;;;;;0.75;0.38;;;;;;;;;;5065285;28;20033;-58
2021/09/28 14:14:14;;;;;;;1.08;0.50;;;;;;;;;;5061066;28;20921;-57
2021/09/28 14:16:41;;;;;;;0.30;0.25;;;;;;;;;;5051150;28;20082;-58
2021/09/28 14:19:07;;;;;;;0.38;0.30;;;;;;;;;;5066220;28;20123;-58
2021/09/28 14:21:33;;;;;;;0.20;0.20;;;;;;;;;;5065801;28;20530;-58
2021/09/28 14:23:59;;;;;;;0.20;0.20;;;;;;;;;;5065927;28;20044;-58
2021/09/28 14:26:25;;;;;;;0.30;0.20;;;;;;;;;;5048092;28;20078;-57
2021/09/28 14:28:53;;;;;;;0.20;0.20;;;;;;;;;;5066518;28;20020;-57
2021/09/28 14:31:19;;;;;;;0.40;0.25;;;;;;;;;;5047080;28;20049;-57
2021/09/28 14:33:45;;;;;;;0.77;0.30;;;;;;;;;;5067738;28;20028;-58
2021/09/28 14:36:11;;;;;;;0.30;0.30;;;;;;;;;;5086132;28;20062;-57
2021/09/28 14:38:37;;;;;;;0.35;0.35;;;;;;;;;;5077535;28;20120;-58
2021/09/28 14:41:04;;;;;;;0.20;0.20;;;;;;;;;;5066380;28;20090;-58
2021/09/28 14:43:31;;;;;;;0.57;0.22;;;;;;;;;;5079098;28;20021;-58
2021/09/28 14:45:57;;;;;;;1.25;0.50;;;;;;;;;;5065324;28;20039;-58
2021/09/28 14:48:23;;;;;;;0.45;0.38;;;;;;;;;;5065966;28;20397;-58
2021/09/28 14:50:50;;;;;;;0.52;0.30;;;;;;;;;;5065427;28;20029;-60
2021/09/28 14:53:16;;;;;;;0.60;0.40;;;;;;;;;;5051446;28;20036;-60
2021/09/28 14:55:42;;;;;;;0.70;0.30;;;;;;;;;;5051488;28;20032;-60